createdAt,value
2018-06-29T00:00:00.778Z,44.10
2018-06-29T00:02:28.688Z,44.30
2018-06-29T00:04:56.157Z,44.20
2018-06-29T00:07:23.846Z,44.20
2018-06-29T00:09:51.659Z,44.20
2018-06-29T00:12:19.383Z,44.20
2018-06-29T00:14:47.552Z,44.10
2018-06-29T00:28:18.433Z,44.10
2018-06-29T00:30:46.080Z,44.10
2018-06-29T00:33:13.748Z,44.10
2018-06-29T00:35:41.382Z,44.10
2018-06-29T00:38:09.174Z,44.10
2018-06-29T00:40:36.977Z,44.10
2018-06-29T00:43:04.648Z,44.20
2018-06-29T00:45:32.429Z,44.20
2018-06-29T00:48:00.076Z,44.20
2018-06-29T00:50:27.666Z,44.20
2018-06-29T00:52:55.258Z,44.00
2018-06-29T00:55:23.221Z,44.10
2018-06-29T00:57:51.062Z,44.10
2018-06-29T01:00:18.892Z,44.00
2018-06-29T01:02:46.711Z,44.00
2018-06-29T01:07:42.056Z,44.10
2018-06-29T01:10:09.979Z,44.00
2018-06-29T01:12:37.670Z,44.00
2018-06-29T01:15:05.642Z,44.00
2018-06-29T01:17:33.439Z,44.00
2018-06-29T01:20:01.159Z,44.00
2018-06-29T01:22:28.950Z,44.00
2018-06-29T01:24:56.727Z,44.10
2018-06-29T01:44:11.689Z,44.10
2018-06-29T01:46:39.313Z,43.90
2018-06-29T01:49:06.976Z,44.00
2018-06-29T01:51:34.775Z,44.00
2018-06-29T01:54:02.475Z,44.00
2018-06-29T01:58:57.596Z,43.90
2018-06-29T02:18:17.511Z,43.80
2018-06-29T02:20:45.308Z,43.80
2018-06-29T02:23:13.071Z,43.90
2018-06-29T02:25:40.875Z,43.90
2018-06-29T02:28:08.543Z,43.90
2018-06-29T02:30:36.416Z,43.90
2018-06-29T02:33:03.971Z,43.90
2018-06-29T02:35:31.587Z,43.90
2018-06-29T02:40:26.604Z,43.90
2018-06-29T02:59:40.222Z,44.00
2018-06-29T03:04:35.117Z,43.80
2018-06-29T03:07:02.715Z,43.90
2018-06-29T03:09:30.352Z,43.90
2018-06-29T03:11:58.093Z,43.70
2018-06-29T03:14:25.836Z,43.80
2018-06-29T03:16:53.485Z,43.80
2018-06-29T03:19:21.376Z,43.70
2018-06-29T03:24:16.303Z,43.70
2018-06-29T03:48:26.116Z,43.80
2018-06-29T03:50:53.804Z,44.00
2018-06-29T03:53:21.505Z,44.00
2018-06-29T04:12:32.992Z,44.30
2018-06-29T04:15:00.621Z,44.40
2018-06-29T04:17:28.352Z,44.30
2018-06-29T04:39:17.482Z,44.60
2018-06-29T04:41:45.201Z,44.50
2018-06-29T04:44:12.910Z,44.60
2018-06-29T04:46:40.638Z,44.60
2018-06-29T04:51:35.791Z,44.70
2018-06-29T04:58:58.089Z,44.80
2018-06-29T05:01:25.731Z,45.20
2018-06-29T05:03:54.909Z,44.80
2018-06-29T05:06:22.397Z,49.50
2018-06-29T05:08:51.146Z,52.10
2018-06-29T05:11:18.767Z,53.90
2018-06-29T05:16:13.852Z,53.00
2018-06-29T05:18:41.463Z,53.40
2018-06-29T05:21:09.048Z,52.80
2018-06-29T05:23:36.631Z,52.40
2018-06-29T05:26:04.235Z,52.00
2018-06-29T05:28:31.982Z,50.80
2018-06-29T05:30:59.589Z,50.60
2018-06-29T05:33:27.175Z,50.20
2018-06-29T05:35:54.750Z,50.00
2018-06-29T05:38:22.357Z,49.70
2018-06-29T05:40:50.023Z,49.50
2018-06-29T05:43:17.613Z,49.20
2018-06-29T05:55:34.230Z,48.50
2018-06-29T05:58:01.811Z,48.30
2018-06-29T06:00:29.435Z,48.20
2018-06-29T06:02:57.006Z,48.10
2018-06-29T06:05:24.646Z,47.90
2018-06-29T06:07:52.231Z,47.90
2018-06-29T06:10:19.910Z,47.70
2018-06-29T06:12:47.473Z,47.60
2018-06-29T06:15:15.131Z,47.40
2018-06-29T06:17:42.713Z,47.30
2018-06-29T06:22:37.610Z,47.20
2018-06-29T06:29:59.822Z,46.90
2018-06-29T06:32:27.381Z,46.80
2018-06-29T06:54:22.196Z,46.40
2018-06-29T06:56:49.783Z,46.20
2018-06-29T06:59:17.429Z,46.20
2018-06-29T07:01:45.031Z,46.20
2018-06-29T07:04:12.525Z,46.10
2018-06-29T07:06:40.283Z,46.10
2018-06-29T07:09:08.658Z,46.10
2018-06-29T07:11:36.208Z,46.00
2018-06-29T07:14:03.820Z,45.90
2018-06-29T07:16:31.411Z,45.90
2018-06-29T07:18:58.962Z,45.80
2018-06-29T07:21:26.602Z,45.70
2018-06-29T07:23:54.150Z,45.60
2018-06-29T07:26:21.829Z,45.60
2018-06-29T07:28:49.411Z,45.60
2018-06-29T07:31:17.001Z,45.50
2018-06-29T07:36:11.794Z,45.40
2018-06-29T07:38:39.434Z,45.40
2018-06-29T07:41:06.965Z,45.40
2018-06-29T07:43:34.545Z,45.30
2018-06-29T07:46:02.087Z,45.30
2018-06-29T07:48:29.595Z,45.10
2018-06-29T07:50:57.082Z,44.90
2018-06-29T07:55:51.824Z,45.00
2018-06-29T07:58:19.398Z,44.90
2018-06-29T08:00:46.842Z,45.00
2018-06-29T08:03:14.387Z,44.90
2018-06-29T08:05:41.952Z,44.80
2018-06-29T08:08:09.585Z,44.70
2018-06-29T08:13:04.668Z,44.70
2018-06-29T08:15:32.239Z,44.70
2018-06-29T08:17:59.812Z,44.60
2018-06-29T08:22:54.589Z,44.60
2018-06-29T08:25:22.184Z,44.50
2018-06-29T08:27:49.735Z,44.50
2018-06-29T08:32:44.527Z,44.50
2018-06-29T08:35:12.006Z,44.50
2018-06-29T08:37:39.987Z,44.40
2018-06-29T08:40:08.096Z,44.30
2018-06-29T08:42:35.951Z,44.30
2018-06-29T08:45:03.650Z,44.20
2018-06-29T08:47:31.226Z,44.20
2018-06-29T08:54:53.302Z,44.10
2018-06-29T08:57:20.842Z,44.10
2018-06-29T08:59:48.396Z,44.10
2018-06-29T09:02:15.877Z,44.00
2018-06-29T09:04:43.372Z,44.00
2018-06-29T09:12:05.762Z,43.80
2018-06-29T09:19:27.904Z,43.80
2018-06-29T09:21:55.460Z,43.70
2018-06-29T09:24:23.166Z,43.60
2018-06-29T09:26:50.802Z,43.60
2018-06-29T09:29:18.436Z,43.50
2018-06-29T09:31:45.989Z,43.60
2018-06-29T09:34:13.718Z,43.30
2018-06-29T09:36:41.454Z,43.30
2018-06-29T09:46:33.008Z,43.20
2018-06-29T09:53:55.216Z,43.00
2018-06-29T09:56:22.762Z,43.10
2018-06-29T09:58:50.351Z,43.10
2018-06-29T10:01:18.056Z,43.00
2018-06-29T10:20:31.735Z,42.80
2018-06-29T10:22:59.282Z,42.80
2018-06-29T10:25:26.893Z,42.80
2018-06-29T10:27:54.487Z,42.80
2018-06-29T10:30:22.125Z,42.80
2018-06-29T10:32:49.627Z,42.80
2018-06-29T10:35:17.231Z,42.90
2018-06-29T10:37:44.718Z,42.90
2018-06-29T10:40:12.287Z,42.90
2018-06-29T10:42:39.838Z,42.90
2018-06-29T10:45:07.311Z,42.90
2018-06-29T10:47:34.881Z,42.90
2018-06-29T10:50:02.425Z,42.80
2018-06-29T10:52:29.977Z,42.60
2018-06-29T10:54:57.606Z,42.60
2018-06-29T10:57:25.161Z,42.70
2018-06-29T10:59:52.721Z,42.60
2018-06-29T11:02:20.392Z,42.60
2018-06-29T11:04:47.993Z,42.60
2018-06-29T11:07:15.696Z,43.20
2018-06-29T11:09:43.313Z,42.60
2018-06-29T11:12:10.965Z,42.50
2018-06-29T11:14:38.564Z,42.50
2018-06-29T11:17:06.158Z,42.60
2018-06-29T11:19:34.026Z,42.50
2018-06-29T11:22:01.612Z,42.50
2018-06-29T11:24:29.273Z,42.50
2018-06-29T11:26:56.846Z,42.50
2018-06-29T11:31:51.749Z,42.50
2018-06-29T11:36:46.566Z,42.40
2018-06-29T11:39:14.519Z,42.30
2018-06-29T11:41:42.688Z,42.30
2018-06-29T11:44:10.651Z,42.40
2018-06-29T11:46:38.677Z,42.30
2018-06-29T11:49:06.360Z,42.30
2018-06-29T11:51:33.959Z,42.30
2018-06-29T11:54:01.801Z,42.20
2018-06-29T11:56:29.300Z,42.20
2018-06-29T11:58:56.831Z,42.30
2018-06-29T12:01:24.357Z,42.30
2018-06-29T12:03:51.861Z,42.30
2018-06-29T12:25:32.551Z,42.10
2018-06-29T12:55:57.675Z,42.20
2018-06-29T12:58:25.259Z,42.20
2018-06-29T13:00:52.644Z,42.20
2018-06-29T13:03:20.609Z,42.50
2018-06-29T13:05:48.065Z,42.40
2018-06-29T13:08:15.542Z,42.30
2018-06-29T13:10:42.962Z,42.30
2018-06-29T13:13:10.484Z,42.30
2018-06-29T13:15:37.987Z,42.50
2018-06-29T13:18:05.508Z,42.80
2018-06-29T13:20:33.124Z,42.60
2018-06-29T13:23:02.193Z,42.50
2018-06-29T13:25:31.372Z,42.90
2018-06-29T13:27:59.270Z,42.50
2018-06-29T13:30:26.743Z,42.60
2018-06-29T13:32:54.202Z,42.50
2018-06-29T13:35:21.666Z,42.60
2018-06-29T13:37:49.121Z,43.20
2018-06-29T13:40:16.711Z,42.80
2018-06-29T13:42:44.755Z,42.60
2018-06-29T13:45:12.195Z,42.60
2018-06-29T13:47:39.748Z,42.60
2018-06-29T13:50:07.281Z,42.70
2018-06-29T13:52:34.770Z,42.70
2018-06-29T13:55:02.275Z,42.60
2018-06-29T13:57:29.682Z,42.50
2018-06-29T13:59:57.105Z,42.50
2018-06-29T14:02:24.636Z,42.60
2018-06-29T14:04:52.051Z,42.60
2018-06-29T14:07:19.619Z,42.70
2018-06-29T14:12:14.304Z,43.10
2018-06-29T14:14:41.728Z,43.00
2018-06-29T14:17:09.171Z,43.00
2018-06-29T14:19:36.654Z,43.00
2018-06-29T14:22:04.159Z,43.00
2018-06-29T14:24:31.651Z,43.00
2018-06-29T14:26:59.299Z,43.00
2018-06-29T14:29:26.824Z,43.00
2018-06-29T14:31:54.366Z,43.80
2018-06-29T14:34:21.898Z,43.00
2018-06-29T14:36:51.282Z,43.00
2018-06-29T14:39:18.837Z,43.50
2018-06-29T14:41:46.385Z,43.60
2018-06-29T14:44:14.038Z,43.60
2018-06-29T14:46:41.599Z,43.40
2018-06-29T14:49:09.603Z,43.30
2018-06-29T14:51:37.137Z,43.40
2018-06-29T14:54:04.619Z,43.60
2018-06-29T14:56:32.309Z,43.50
2018-06-29T14:58:59.784Z,43.30
2018-06-29T15:03:54.642Z,43.40
2018-06-29T15:06:22.070Z,43.40
2018-06-29T15:08:49.557Z,43.30
2018-06-29T15:11:17.142Z,43.30
2018-06-29T15:13:44.899Z,43.30
2018-06-29T15:16:12.564Z,43.20
2018-06-29T15:18:40.366Z,43.20
2018-06-29T15:21:08.006Z,43.10
2018-06-29T15:23:35.446Z,43.10
2018-06-29T15:26:03.210Z,43.20
2018-06-29T15:28:30.651Z,43.10
2018-06-29T15:30:58.123Z,43.10
2018-06-29T15:33:25.745Z,43.00
2018-06-29T15:35:53.197Z,43.20
2018-06-29T15:38:20.627Z,43.10
2018-06-29T15:40:48.147Z,42.90
2018-06-29T15:43:15.695Z,43.10
2018-06-29T15:45:43.132Z,42.90
2018-06-29T15:48:10.582Z,42.80
2018-06-29T15:53:05.499Z,43.00
2018-06-29T15:55:32.949Z,43.00
2018-06-29T15:58:00.392Z,42.80
2018-06-29T16:00:27.822Z,42.80
2018-06-29T16:02:55.304Z,42.80
2018-06-29T16:05:22.731Z,42.80
2018-06-29T16:07:50.179Z,42.80
2018-06-29T16:10:17.607Z,42.80
2018-06-29T16:12:46.075Z,42.80
2018-06-29T16:15:13.658Z,42.80
2018-06-29T16:17:41.383Z,42.80
2018-06-29T16:20:09.008Z,42.80
2018-06-29T16:22:36.539Z,42.80
2018-06-29T16:25:04.063Z,42.80
2018-06-29T16:27:31.579Z,42.80
2018-06-29T16:29:59.186Z,42.80
2018-06-29T16:32:26.631Z,42.80
2018-06-29T16:34:54.291Z,42.80
2018-06-29T16:37:21.775Z,42.80
2018-06-29T16:39:49.271Z,42.80
2018-06-29T16:42:16.746Z,42.80
2018-06-29T16:44:44.341Z,42.80
2018-06-29T16:47:11.723Z,42.80
2018-06-29T16:49:39.226Z,42.70
2018-06-29T16:52:06.667Z,42.80
2018-06-29T16:54:34.303Z,43.20
2018-06-29T16:59:29.563Z,43.20
2018-06-29T17:01:57.871Z,43.10
2018-06-29T17:04:26.075Z,43.20
2018-06-29T17:06:54.437Z,43.30
2018-06-29T17:09:22.705Z,43.30
2018-06-29T17:11:50.897Z,43.30
2018-06-29T17:14:19.231Z,43.30
2018-06-29T17:16:47.634Z,43.40
2018-06-29T17:19:16.762Z,43.50
2018-06-29T17:21:45.431Z,43.50
2018-06-29T17:24:13.876Z,44.20
2018-06-29T17:26:42.357Z,43.60
2018-06-29T17:29:11.603Z,43.70
2018-06-29T17:31:39.767Z,43.70
2018-06-29T17:34:09.059Z,43.80
2018-06-29T17:36:37.135Z,43.80
2018-06-29T17:39:06.998Z,43.90
2018-06-29T17:41:35.356Z,43.90
2018-06-29T17:44:03.802Z,43.90
2018-06-29T17:46:32.228Z,43.90
2018-06-29T17:49:00.372Z,44.00
2018-06-29T17:51:28.743Z,44.00
2018-06-29T17:53:57.280Z,44.00
2018-06-29T17:56:26.457Z,44.10
2018-06-29T17:58:54.814Z,44.10
2018-06-29T18:01:23.114Z,44.20
2018-06-29T18:03:51.366Z,44.20
2018-06-29T18:06:19.616Z,44.50
2018-06-29T18:08:47.688Z,44.90
2018-06-29T18:11:16.092Z,45.30
2018-06-29T18:13:43.658Z,45.00
2018-06-29T18:16:11.153Z,46.20
2018-06-29T18:18:38.642Z,45.20
2018-06-29T18:21:06.383Z,45.10
2018-06-29T18:23:34.045Z,44.90
2018-06-29T18:26:01.539Z,44.90
2018-06-29T18:28:28.974Z,44.90
2018-06-29T18:30:56.403Z,44.90
2018-06-29T18:33:24.035Z,44.90
2018-06-29T18:35:51.482Z,44.90
2018-06-29T18:38:18.916Z,44.90
2018-06-29T18:40:46.371Z,44.80
2018-06-29T18:43:14.069Z,44.80
2018-06-29T18:45:41.491Z,44.80
2018-06-29T18:48:09.482Z,45.30
2018-06-29T18:50:37.283Z,44.80
2018-06-29T18:55:31.939Z,44.80
2018-06-29T18:57:59.377Z,44.80
2018-06-29T19:00:26.791Z,44.80
2018-06-29T19:02:54.223Z,44.70
2018-06-29T19:05:21.858Z,45.30
2018-06-29T19:07:49.318Z,44.60
2018-06-29T19:10:16.767Z,44.50
2018-06-29T19:12:44.371Z,44.60
2018-06-29T19:15:12.016Z,44.80
2018-06-29T19:17:39.782Z,44.60
2018-06-29T19:20:07.503Z,44.50
2018-06-29T19:22:34.946Z,44.70
2018-06-29T19:25:02.653Z,44.80
2018-06-29T19:27:30.153Z,44.80
2018-06-29T19:29:57.571Z,44.80
2018-06-29T19:32:25.163Z,44.90
2018-06-29T19:34:52.676Z,45.10
2018-06-29T19:37:20.117Z,44.90
2018-06-29T19:39:48.171Z,45.70
2018-06-29T19:42:16.126Z,45.00
2018-06-29T19:44:43.566Z,44.90
2018-06-29T19:47:11.008Z,44.90
2018-06-29T19:49:38.470Z,44.90
2018-06-29T19:52:05.930Z,45.00
2018-06-29T19:57:00.579Z,45.20
2018-06-29T19:59:28.443Z,45.20
2018-06-29T20:01:55.939Z,45.20
2018-06-29T20:04:23.367Z,45.20
2018-06-29T20:06:50.791Z,45.20
2018-06-29T20:09:18.227Z,45.20
2018-06-29T20:11:46.458Z,45.20
2018-06-29T20:14:15.503Z,45.20
2018-06-29T20:16:43.014Z,45.30
2018-06-29T20:19:10.434Z,45.30
2018-06-29T20:21:38.056Z,45.20
2018-06-29T20:24:05.511Z,45.30
2018-06-29T20:26:32.951Z,45.90
2018-06-29T20:29:00.355Z,45.30
2018-06-29T20:31:27.762Z,45.30
2018-06-29T20:33:55.181Z,45.30
2018-06-29T20:36:22.586Z,45.30
2018-06-29T20:38:50.139Z,45.40
2018-06-29T20:41:17.674Z,45.40
2018-06-29T20:43:45.149Z,45.40
2018-06-29T20:47:55.664Z,45.40
2018-06-29T21:07:07.102Z,45.60
2018-06-29T21:26:20.657Z,45.80
2018-06-29T21:28:48.370Z,45.70
2018-06-29T21:31:16.074Z,45.70
2018-06-29T21:33:43.593Z,45.60
2018-06-29T21:52:58.598Z,45.30
2018-06-29T21:55:26.144Z,45.10
2018-06-29T21:57:53.684Z,45.20
2018-06-29T22:17:03.544Z,45.20
2018-06-29T22:19:31.173Z,45.20
2018-06-29T22:24:26.103Z,45.20
2018-06-29T22:26:53.674Z,45.20
2018-06-29T22:29:21.186Z,45.10
2018-06-29T22:31:48.740Z,45.10
2018-06-29T22:36:43.660Z,45.10
2018-06-29T22:39:12.488Z,45.70
2018-06-29T22:41:41.168Z,45.00
2018-06-29T22:44:08.874Z,44.90
2018-06-29T22:46:36.643Z,44.90
2018-06-29T22:51:31.615Z,44.80
2018-06-29T22:53:59.237Z,44.80
2018-06-29T22:56:26.963Z,44.80
2018-06-29T23:15:44.635Z,44.60
2018-06-29T23:18:12.385Z,44.50
2018-06-29T23:20:40.215Z,44.60
2018-06-29T23:25:35.127Z,44.40
2018-06-29T23:28:02.770Z,44.60
2018-06-29T23:30:30.466Z,44.60
2018-06-29T23:32:58.024Z,44.50
2018-06-29T23:35:25.652Z,44.20
2018-06-29T23:37:53.330Z,44.50
2018-06-29T23:40:21.007Z,44.50
